Aérodrome :
LOGIN :

S'inscrire | Disclaimer

   EN    FR    IT 

 










Légende :    VFR   VFR Marginal   IFR   IFR Intensif   IFR Très Intensif
Visi : 
Plafond : 
>= 8 km
>= 3000ft
5 à 8 km
1000 à 3000 ft
1500m à 5 km
500 à 1000 ft
800 à 1500m
200 à 500 ft
< 800m
< 200 ft
Symboles :   Orages  Brouillard  Fortes neiges  Fortes précipitations  Vent > 20 kt
SIGMETs :   Divers  Orages  Givrage  Turbulence  Onde Orograph.  Cendres Volcan.







- Altitude de l'aérodrome : 81 ft
- Code IATA : SCS
- Voir les cartes d'approche


EGPM - Scatsta

DERNIER METAR :
  • 221950Z AUTO 25007KT 9999 OVC001/// 13/13 Q1009

METARs EXPIRÉS :
  • 221920Z AUTO 25009KT 6000 OVC001/// 13/13 Q1009
  • 221850Z AUTO 24011KT 3400 BR OVC001/// 13/13 Q1008
  • 221820Z AUTO 25010KT 9999 OVC003/// 14/13 Q1008
  • 221750Z AUTO 24013KT 9999 OVC002/// 14/13 Q1008
  • 221720Z AUTO 24014KT 9999 OVC003/// 14/13 Q1007

Prévision TAF périmée.
Pas de NOTAMs connus pour ce terrain.
1 SIGMET publié pour la FIR Scottish (EGPX) :
 
Onde orographique forte
EGPX SIGMET 05 VALID 221800/222200 EGRR
EGPX SCOTTISH FIR SEV MTW FCST WI N5809 W00707 - N5846 W00112 - N5709 W00039 - N5626 W00624 - N5809 W00707 FL030/240 MOV N 10KT NC=



MET'MAP, la Météo Aéronautique d'un coup d'oeil ! - Copyright ORBIFLY Décembre 2007 - Disclaimer

ORBIFLY MET'MAP TEAM :

Programmation & Développement : Alexandra Zaïnal
Conception & Développement : Baudouin d'Aumeries
Co-Programmation & Développement : Marc-Olivier Méhu
Soutien technique & logistique : Manuel Goepfert

Contact : metmap@orbifly.com




SOURCES & CREDITS :

   NOAA